sensor_id;sensor_type;location;lat;lon;timestamp;temperature;humidity
38973;DHT22;25333;50.762;4.470;2022-07-10T00:00:54;14.50;99.90
38973;DHT22;25333;50.762;4.470;2022-07-10T00:03:24;14.50;99.90
38973;DHT22;25333;50.762;4.470;2022-07-10T00:06:11;14.60;99.90
38973;DHT22;25333;50.762;4.470;2022-07-10T00:08:58;14.50;99.90
38973;DHT22;25333;50.762;4.470;2022-07-10T00:11:54;14.50;99.90
38973;DHT22;25333;50.762;4.470;2022-07-10T00:15:20;14.40;99.90
38973;DHT22;25333;50.762;4.470;2022-07-10T00:18:31;14.40;99.90
38973;DHT22;25333;50.762;4.470;2022-07-10T00:21:17;14.30;99.90
38973;DHT22;25333;50.762;4.470;2022-07-10T00:27:30;14.20;99.90
38973;DHT22;25333;50.762;4.470;2022-07-10T00:30:35;14.20;99.90
38973;DHT22;25333;50.762;4.470;2022-07-10T00:36:49;14.10;99.90
38973;DHT22;25333;50.762;4.470;2022-07-10T00:40:03;14.00;99.90
38973;DHT22;25333;50.762;4.470;2022-07-10T00:44:01;13.90;99.90
38973;DHT22;25333;50.762;4.470;2022-07-10T00:46:19;13.90;99.90
38973;DHT22;25333;50.762;4.470;2022-07-10T00:49:27;13.90;99.90
38973;DHT22;25333;50.762;4.470;2022-07-10T00:52:52;13.80;99.90
38973;DHT22;25333;50.762;4.470;2022-07-10T00:55:54;13.80;99.90
38973;DHT22;25333;50.762;4.470;2022-07-10T01:07:24;13.60;99.90
38973;DHT22;25333;50.762;4.470;2022-07-10T01:10:13;13.60;99.90
38973;DHT22;25333;50.762;4.470;2022-07-10T01:13:49;13.60;99.90
38973;DHT22;25333;50.762;4.470;2022-07-10T01:17:24;13.60;99.90
38973;DHT22;25333;50.762;4.470;2022-07-10T01:20:14;13.50;99.90
38973;DHT22;25333;50.762;4.470;2022-07-10T01:26:26;13.40;99.90
38973;DHT22;25333;50.762;4.470;2022-07-10T01:28:55;13.30;99.90
38973;DHT22;25333;50.762;4.470;2022-07-10T01:31:46;13.30;99.90
38973;DHT22;25333;50.762;4.470;2022-07-10T01:34:32;13.30;99.90
38973;DHT22;25333;50.762;4.470;2022-07-10T01:37:54;13.30;99.90
38973;DHT22;25333;50.762;4.470;2022-07-10T01:44:21;13.20;99.90
38973;DHT22;25333;50.762;4.470;2022-07-10T01:48:06;13.20;99.90
38973;DHT22;25333;50.762;4.470;2022-07-10T01:51:28;13.10;99.90
38973;DHT22;25333;50.762;4.470;2022-07-10T01:57:48;13.10;99.90
38973;DHT22;25333;50.762;4.470;2022-07-10T02:00:44;13.10;99.90
38973;DHT22;25333;50.762;4.470;2022-07-10T02:07:15;13.00;99.90
38973;DHT22;25333;50.762;4.470;2022-07-10T02:13:12;13.00;99.90
38973;DHT22;25333;50.762;4.470;2022-07-10T02:16:50;13.00;99.90
38973;DHT22;25333;50.762;4.470;2022-07-10T02:19:16;12.90;99.90
38973;DHT22;25333;50.762;4.470;2022-07-10T02:22:44;12.80;99.90
38973;DHT22;25333;50.762;4.470;2022-07-10T02:25:29;12.80;99.90
38973;DHT22;25333;50.762;4.470;2022-07-10T02:28:00;12.80;99.90
38973;DHT22;25333;50.762;4.470;2022-07-10T02:31:10;12.80;99.90
38973;DHT22;25333;50.762;4.470;2022-07-10T02:37:05;12.80;99.90
38973;DHT22;25333;50.762;4.470;2022-07-10T02:39:59;12.80;99.90
38973;DHT22;25333;50.762;4.470;2022-07-10T02:43:18;12.70;99.90
38973;DHT22;25333;50.762;4.470;2022-07-10T02:49:56;12.70;99.90
38973;DHT22;25333;50.762;4.470;2022-07-10T02:52:56;12.60;99.90
38973;DHT22;25333;50.762;4.470;2022-07-10T02:56:30;12.60;99.90
38973;DHT22;25333;50.762;4.470;2022-07-10T02:59:18;12.60;99.90
38973;DHT22;25333;50.762;4.470;2022-07-10T03:04:42;12.60;99.90
38973;DHT22;25333;50.762;4.470;2022-07-10T03:07:50;12.60;99.90
38973;DHT22;25333;50.762;4.470;2022-07-10T03:11:03;12.60;99.90
38973;DHT22;25333;50.762;4.470;2022-07-10T03:13:28;12.60;99.90
38973;DHT22;25333;50.762;4.470;2022-07-10T03:16:52;12.60;99.90
38973;DHT22;25333;50.762;4.470;2022-07-10T03:22:30;12.50;99.90
38973;DHT22;25333;50.762;4.470;2022-07-10T03:25:32;12.40;99.90
38973;DHT22;25333;50.762;4.470;2022-07-10T03:28:06;12.30;99.90
38973;DHT22;25333;50.762;4.470;2022-07-10T03:31:14;12.30;99.90
38973;DHT22;25333;50.762;4.470;2022-07-10T03:33:59;12.30;99.90
38973;DHT22;25333;50.762;4.470;2022-07-10T03:37:11;12.30;99.90
38973;DHT22;25333;50.762;4.470;2022-07-10T03:39:45;12.30;99.90
38973;DHT22;25333;50.762;4.470;2022-07-10T03:43:00;12.30;99.90
38973;DHT22;25333;50.762;4.470;2022-07-10T03:45:30;12.30;99.90
38973;DHT22;25333;50.762;4.470;2022-07-10T03:48:24;12.30;99.90
38973;DHT22;25333;50.762;4.470;2022-07-10T03:51:44;12.20;99.90
38973;DHT22;25333;50.762;4.470;2022-07-10T03:57:46;12.40;99.90
38973;DHT22;25333;50.762;4.470;2022-07-10T04:01:10;12.30;99.90
38973;DHT22;25333;50.762;4.470;2022-07-10T04:04:42;12.30;99.90
38973;DHT22;25333;50.762;4.470;2022-07-10T04:11:06;12.20;99.90
38973;DHT22;25333;50.762;4.470;2022-07-10T04:14:10;12.20;99.90
38973;DHT22;25333;50.762;4.470;2022-07-10T04:20:22;12.30;99.90
38973;DHT22;25333;50.762;4.470;2022-07-10T04:23:13;12.30;99.90
38973;DHT22;25333;50.762;4.470;2022-07-10T04:25:51;12.30;99.90
38973;DHT22;25333;50.762;4.470;2022-07-10T04:28:24;12.30;99.90
38973;DHT22;25333;50.762;4.470;2022-07-10T04:31:08;12.30;99.90
38973;DHT22;25333;50.762;4.470;2022-07-10T04:33:40;12.30;99.90
38973;DHT22;25333;50.762;4.470;2022-07-10T04:36:11;12.30;99.90
38973;DHT22;25333;50.762;4.470;2022-07-10T04:39:29;12.30;99.90
38973;DHT22;25333;50.762;4.470;2022-07-10T04:42:14;12.20;99.90
38973;DHT22;25333;50.762;4.470;2022-07-10T04:45:21;12.30;99.90
38973;DHT22;25333;50.762;4.470;2022-07-10T04:48:19;12.40;99.90
38973;DHT22;25333;50.762;4.470;2022-07-10T04:51:13;12.50;99.90
38973;DHT22;25333;50.762;4.470;2022-07-10T04:53:59;12.60;99.90
38973;DHT22;25333;50.762;4.470;2022-07-10T04:59:55;12.70;99.90
38973;DHT22;25333;50.762;4.470;2022-07-10T05:02:43;12.80;99.90
38973;DHT22;25333;50.762;4.470;2022-07-10T05:05:53;12.80;99.90
38973;DHT22;25333;50.762;4.470;2022-07-10T05:08:46;12.90;99.90
38973;DHT22;25333;50.762;4.470;2022-07-10T05:12:45;12.90;99.90
38973;DHT22;25333;50.762;4.470;2022-07-10T05:15:11;13.00;99.90
38973;DHT22;25333;50.762;4.470;2022-07-10T05:18:03;13.00;99.90
38973;DHT22;25333;50.762;4.470;2022-07-10T05:21:34;13.10;99.90
38973;DHT22;25333;50.762;4.470;2022-07-10T05:24:55;13.10;99.90
38973;DHT22;25333;50.762;4.470;2022-07-10T05:28:00;13.20;99.90
38973;DHT22;25333;50.762;4.470;2022-07-10T05:30:51;13.30;99.90
38973;DHT22;25333;50.762;4.470;2022-07-10T05:33:23;13.30;99.90
38973;DHT22;25333;50.762;4.470;2022-07-10T05:36:43;13.40;99.90
38973;DHT22;25333;50.762;4.470;2022-07-10T05:39:54;13.40;99.90
38973;DHT22;25333;50.762;4.470;2022-07-10T05:43:19;13.50;99.90
38973;DHT22;25333;50.762;4.470;2022-07-10T05:46:24;13.50;99.90
38973;DHT22;25333;50.762;4.470;2022-07-10T05:49:36;13.70;99.90
38973;DHT22;25333;50.762;4.470;2022-07-10T05:54:44;13.70;99.90
38973;DHT22;25333;50.762;4.470;2022-07-10T05:57:33;13.70;99.90
38973;DHT22;25333;50.762;4.470;2022-07-10T06:00:36;13.70;99.90
38973;DHT22;25333;50.762;4.470;2022-07-10T06:03:44;13.80;99.90
38973;DHT22;25333;50.762;4.470;2022-07-10T06:06:40;13.90;99.90
38973;DHT22;25333;50.762;4.470;2022-07-10T06:13:13;14.00;99.90
38973;DHT22;25333;50.762;4.470;2022-07-10T06:15:45;14.10;99.90
38973;DHT22;25333;50.762;4.470;2022-07-10T06:18:33;14.20;99.90
38973;DHT22;25333;50.762;4.470;2022-07-10T06:21:14;14.30;99.90
38973;DHT22;25333;50.762;4.470;2022-07-10T06:27:22;14.50;99.90
38973;DHT22;25333;50.762;4.470;2022-07-10T06:37:19;14.90;99.90
38973;DHT22;25333;50.762;4.470;2022-07-10T06:39:49;15.00;99.90
38973;DHT22;25333;50.762;4.470;2022-07-10T06:42:54;15.10;99.90
38973;DHT22;25333;50.762;4.470;2022-07-10T06:45:49;15.20;99.90
38973;DHT22;25333;50.762;4.470;2022-07-10T06:48:34;15.30;99.90
38973;DHT22;25333;50.762;4.470;2022-07-10T06:51:54;15.30;99.90
38973;DHT22;25333;50.762;4.470;2022-07-10T06:54:20;15.30;99.90
38973;DHT22;25333;50.762;4.470;2022-07-10T07:00:17;15.50;99.90
38973;DHT22;25333;50.762;4.470;2022-07-10T07:02:43;15.50;99.90
38973;DHT22;25333;50.762;4.470;2022-07-10T07:05:11;15.60;99.90
38973;DHT22;25333;50.762;4.470;2022-07-10T07:07:43;15.70;99.90
38973;DHT22;25333;50.762;4.470;2022-07-10T07:10:32;15.60;99.90
38973;DHT22;25333;50.762;4.470;2022-07-10T07:13:27;15.70;99.90
38973;DHT22;25333;50.762;4.470;2022-07-10T07:15:53;15.80;99.90
38973;DHT22;25333;50.762;4.470;2022-07-10T07:19:02;15.80;99.90
38973;DHT22;25333;50.762;4.470;2022-07-10T07:25:38;16.00;99.90
38973;DHT22;25333;50.762;4.470;2022-07-10T07:28:40;16.10;99.90
38973;DHT22;25333;50.762;4.470;2022-07-10T07:34:54;16.10;99.90
38973;DHT22;25333;50.762;4.470;2022-07-10T07:38:03;16.20;99.90
38973;DHT22;25333;50.762;4.470;2022-07-10T07:40:50;16.20;99.90
38973;DHT22;25333;50.762;4.470;2022-07-10T07:43:20;16.30;99.90
38973;DHT22;25333;50.762;4.470;2022-07-10T07:49:31;16.40;99.90
38973;DHT22;25333;50.762;4.470;2022-07-10T07:55:53;16.50;99.90
38973;DHT22;25333;50.762;4.470;2022-07-10T07:59:22;16.60;99.90
38973;DHT22;25333;50.762;4.470;2022-07-10T08:01:51;16.70;99.90
38973;DHT22;25333;50.762;4.470;2022-07-10T08:04:26;16.80;99.90
38973;DHT22;25333;50.762;4.470;2022-07-10T08:07:03;16.90;99.90
38973;DHT22;25333;50.762;4.470;2022-07-10T08:13:08;16.90;99.90
38973;DHT22;25333;50.762;4.470;2022-07-10T08:16:08;17.10;99.90
38973;DHT22;25333;50.762;4.470;2022-07-10T08:19:18;17.10;99.90
38973;DHT22;25333;50.762;4.470;2022-07-10T08:21:45;17.20;99.90
38973;DHT22;25333;50.762;4.470;2022-07-10T08:24:11;17.30;99.90
38973;DHT22;25333;50.762;4.470;2022-07-10T08:26:59;17.30;99.90
38973;DHT22;25333;50.762;4.470;2022-07-10T08:29:29;17.40;99.90
38973;DHT22;25333;50.762;4.470;2022-07-10T08:31:58;17.50;99.90
38973;DHT22;25333;50.762;4.470;2022-07-10T08:34:24;17.50;99.90
38973;DHT22;25333;50.762;4.470;2022-07-10T08:36:50;17.60;99.90
38973;DHT22;25333;50.762;4.470;2022-07-10T08:39:16;17.80;99.90
38973;DHT22;25333;50.762;4.470;2022-07-10T08:41:46;17.90;99.90
38973;DHT22;25333;50.762;4.470;2022-07-10T08:44:17;18.00;99.20
38973;DHT22;25333;50.762;4.470;2022-07-10T08:46:43;18.00;99.10
38973;DHT22;25333;50.762;4.470;2022-07-10T08:49:10;18.10;99.80
38973;DHT22;25333;50.762;4.470;2022-07-10T08:51:57;18.30;98.40
38973;DHT22;25333;50.762;4.470;2022-07-10T08:54:27;18.40;99.20
38973;DHT22;25333;50.762;4.470;2022-07-10T08:56:56;18.30;98.50
38973;DHT22;25333;50.762;4.470;2022-07-10T08:59:22;18.30;98.90
38973;DHT22;25333;50.762;4.470;2022-07-10T09:01:50;18.30;98.70
38973;DHT22;25333;50.762;4.470;2022-07-10T09:04:17;18.20;97.80
38973;DHT22;25333;50.762;4.470;2022-07-10T09:06:50;18.20;98.60
38973;DHT22;25333;50.762;4.470;2022-07-10T09:10:20;18.20;98.00
38973;DHT22;25333;50.762;4.470;2022-07-10T09:13:02;18.40;99.10
38973;DHT22;25333;50.762;4.470;2022-07-10T09:15:29;18.60;98.20
38973;DHT22;25333;50.762;4.470;2022-07-10T09:18:02;18.70;98.40
38973;DHT22;25333;50.762;4.470;2022-07-10T09:20:36;18.70;99.00
38973;DHT22;25333;50.762;4.470;2022-07-10T09:23:22;18.70;97.80
38973;DHT22;25333;50.762;4.470;2022-07-10T09:25:53;18.60;97.30
38973;DHT22;25333;50.762;4.470;2022-07-10T09:28:40;18.60;98.00
38973;DHT22;25333;50.762;4.470;2022-07-10T09:31:12;18.60;97.00
38973;DHT22;25333;50.762;4.470;2022-07-10T09:33:45;18.60;98.00
38973;DHT22;25333;50.762;4.470;2022-07-10T09:36:20;18.60;98.90
38973;DHT22;25333;50.762;4.470;2022-07-10T09:38:47;18.70;97.60
38973;DHT22;25333;50.762;4.470;2022-07-10T09:41:31;18.80;97.60
38973;DHT22;25333;50.762;4.470;2022-07-10T09:44:18;19.00;98.60
38973;DHT22;25333;50.762;4.470;2022-07-10T09:46:50;19.30;98.30
38973;DHT22;25333;50.762;4.470;2022-07-10T09:49:17;19.30;96.10
38973;DHT22;25333;50.762;4.470;2022-07-10T09:56:01;19.20;96.90
38973;DHT22;25333;50.762;4.470;2022-07-10T09:58:29;19.30;96.80
38973;DHT22;25333;50.762;4.470;2022-07-10T10:00:58;19.50;96.40
38973;DHT22;25333;50.762;4.470;2022-07-10T10:03:25;19.50;97.30
38973;DHT22;25333;50.762;4.470;2022-07-10T10:06:17;19.50;97.70
38973;DHT22;25333;50.762;4.470;2022-07-10T10:09:23;19.60;96.60
38973;DHT22;25333;50.762;4.470;2022-07-10T10:11:57;19.80;97.90
38973;DHT22;25333;50.762;4.470;2022-07-10T10:14:28;20.00;96.50
38973;DHT22;25333;50.762;4.470;2022-07-10T10:17:34;20.10;96.60
38973;DHT22;25333;50.762;4.470;2022-07-10T10:20:01;20.20;96.90
38973;DHT22;25333;50.762;4.470;2022-07-10T10:22:48;20.30;96.50
38973;DHT22;25333;50.762;4.470;2022-07-10T10:25:16;20.20;96.30
38973;DHT22;25333;50.762;4.470;2022-07-10T10:27:43;20.30;97.40
38973;DHT22;25333;50.762;4.470;2022-07-10T10:30:12;20.40;96.60
38973;DHT22;25333;50.762;4.470;2022-07-10T10:32:41;20.70;97.00
38973;DHT22;25333;50.762;4.470;2022-07-10T10:35:07;21.00;96.90
38973;DHT22;25333;50.762;4.470;2022-07-10T10:37:37;21.00;95.80
38973;DHT22;25333;50.762;4.470;2022-07-10T10:40:05;21.30;94.70
38973;DHT22;25333;50.762;4.470;2022-07-10T10:42:36;21.30;95.60
38973;DHT22;25333;50.762;4.470;2022-07-10T10:48:06;21.40;96.70
38973;DHT22;25333;50.762;4.470;2022-07-10T10:53:04;21.50;96.00
38973;DHT22;25333;50.762;4.470;2022-07-10T10:55:29;21.80;95.40
38973;DHT22;25333;50.762;4.470;2022-07-10T10:58:14;21.70;95.00
38973;DHT22;25333;50.762;4.470;2022-07-10T11:00:39;21.70;95.30
38973;DHT22;25333;50.762;4.470;2022-07-10T11:03:13;21.60;95.30
38973;DHT22;25333;50.762;4.470;2022-07-10T11:05:40;21.80;94.80
38973;DHT22;25333;50.762;4.470;2022-07-10T11:08:07;22.00;94.70
38973;DHT22;25333;50.762;4.470;2022-07-10T11:10:34;21.90;93.90
38973;DHT22;25333;50.762;4.470;2022-07-10T11:13:04;21.80;94.90
38973;DHT22;25333;50.762;4.470;2022-07-10T11:15:31;21.70;94.50
38973;DHT22;25333;50.762;4.470;2022-07-10T11:18:11;21.60;94.50
38973;DHT22;25333;50.762;4.470;2022-07-10T11:20:57;21.40;94.20
38973;DHT22;25333;50.762;4.470;2022-07-10T11:29:06;21.50;95.10
38973;DHT22;25333;50.762;4.470;2022-07-10T11:31:32;21.50;94.80
38973;DHT22;25333;50.762;4.470;2022-07-10T11:34:03;21.50;96.60
38973;DHT22;25333;50.762;4.470;2022-07-10T11:36:30;21.60;96.10
38973;DHT22;25333;50.762;4.470;2022-07-10T11:39:04;21.60;94.50
38973;DHT22;25333;50.762;4.470;2022-07-10T11:41:30;21.60;96.10
38973;DHT22;25333;50.762;4.470;2022-07-10T11:44:01;21.90;95.00
38973;DHT22;25333;50.762;4.470;2022-07-10T11:46:28;21.70;94.90
38973;DHT22;25333;50.762;4.470;2022-07-10T11:48:55;21.90;94.70
38973;DHT22;25333;50.762;4.470;2022-07-10T11:51:34;21.90;94.80
38973;DHT22;25333;50.762;4.470;2022-07-10T11:54:04;21.90;93.90
38973;DHT22;25333;50.762;4.470;2022-07-10T11:56:35;21.90;94.50
38973;DHT22;25333;50.762;4.470;2022-07-10T11:59:12;22.00;96.20
38973;DHT22;25333;50.762;4.470;2022-07-10T12:01:43;22.30;94.70
38973;DHT22;25333;50.762;4.470;2022-07-10T12:04:09;22.40;94.80
38973;DHT22;25333;50.762;4.470;2022-07-10T12:06:41;22.30;93.60
38973;DHT22;25333;50.762;4.470;2022-07-10T12:09:12;22.40;95.40
38973;DHT22;25333;50.762;4.470;2022-07-10T12:11:39;22.50;94.40
38973;DHT22;25333;50.762;4.470;2022-07-10T12:14:15;22.50;93.50
38973;DHT22;25333;50.762;4.470;2022-07-10T12:16:45;22.40;94.80
38973;DHT22;25333;50.762;4.470;2022-07-10T12:19:13;22.50;94.20
38973;DHT22;25333;50.762;4.470;2022-07-10T12:21:42;22.50;93.80
38973;DHT22;25333;50.762;4.470;2022-07-10T12:24:08;22.40;94.30
38973;DHT22;25333;50.762;4.470;2022-07-10T12:26:36;22.50;94.90
38973;DHT22;25333;50.762;4.470;2022-07-10T12:29:03;22.70;93.20
38973;DHT22;25333;50.762;4.470;2022-07-10T12:31:31;22.70;93.70
38973;DHT22;25333;50.762;4.470;2022-07-10T12:34:06;22.80;93.70
38973;DHT22;25333;50.762;4.470;2022-07-10T12:36:49;22.70;93.40
38973;DHT22;25333;50.762;4.470;2022-07-10T12:39:24;22.70;93.30
38973;DHT22;25333;50.762;4.470;2022-07-10T12:42:03;22.60;92.80
38973;DHT22;25333;50.762;4.470;2022-07-10T12:44:45;22.60;94.30
38973;DHT22;25333;50.762;4.470;2022-07-10T12:47:18;22.70;93.80
38973;DHT22;25333;50.762;4.470;2022-07-10T12:52:27;22.70;93.40
38973;DHT22;25333;50.762;4.470;2022-07-10T12:55:16;22.40;93.10
38973;DHT22;25333;50.762;4.470;2022-07-10T12:57:54;22.30;93.50
38973;DHT22;25333;50.762;4.470;2022-07-10T13:00:21;22.30;93.50
38973;DHT22;25333;50.762;4.470;2022-07-10T13:02:47;22.40;93.70
38973;DHT22;25333;50.762;4.470;2022-07-10T13:05:38;22.60;94.30
38973;DHT22;25333;50.762;4.470;2022-07-10T13:08:24;22.80;93.70
38973;DHT22;25333;50.762;4.470;2022-07-10T13:13:17;23.00;93.30
38973;DHT22;25333;50.762;4.470;2022-07-10T13:15:43;23.10;94.00
38973;DHT22;25333;50.762;4.470;2022-07-10T13:18:17;23.30;93.50
38973;DHT22;25333;50.762;4.470;2022-07-10T13:20:50;23.40;93.00
38973;DHT22;25333;50.762;4.470;2022-07-10T13:23:17;23.30;93.70
38973;DHT22;25333;50.762;4.470;2022-07-10T13:25:52;23.20;92.50
38973;DHT22;25333;50.762;4.470;2022-07-10T13:28:18;22.90;92.70
38973;DHT22;25333;50.762;4.470;2022-07-10T13:30:44;22.70;94.00
38973;DHT22;25333;50.762;4.470;2022-07-10T13:33:10;22.70;94.40
38973;DHT22;25333;50.762;4.470;2022-07-10T13:35:36;22.60;93.00
38973;DHT22;25333;50.762;4.470;2022-07-10T13:38:03;22.50;94.60
38973;DHT22;25333;50.762;4.470;2022-07-10T13:40:37;22.40;93.20
38973;DHT22;25333;50.762;4.470;2022-07-10T13:43:03;22.50;94.10
38973;DHT22;25333;50.762;4.470;2022-07-10T13:45:35;22.60;93.90
38973;DHT22;25333;50.762;4.470;2022-07-10T13:48:22;22.80;94.10
38973;DHT22;25333;50.762;4.470;2022-07-10T13:50:48;22.80;93.20
38973;DHT22;25333;50.762;4.470;2022-07-10T13:53:16;22.60;93.20
38973;DHT22;25333;50.762;4.470;2022-07-10T13:55:42;22.70;92.80
38973;DHT22;25333;50.762;4.470;2022-07-10T13:58:11;22.70;93.90
38973;DHT22;25333;50.762;4.470;2022-07-10T14:00:43;22.70;94.20
38973;DHT22;25333;50.762;4.470;2022-07-10T14:06:25;22.70;93.60
38973;DHT22;25333;50.762;4.470;2022-07-10T14:08:56;22.60;93.20
38973;DHT22;25333;50.762;4.470;2022-07-10T14:11:26;22.60;93.60
38973;DHT22;25333;50.762;4.470;2022-07-10T14:13:53;22.70;93.70
38973;DHT22;25333;50.762;4.470;2022-07-10T14:16:26;22.90;92.70
38973;DHT22;25333;50.762;4.470;2022-07-10T14:18:52;23.00;93.10
38973;DHT22;25333;50.762;4.470;2022-07-10T14:21:19;23.10;94.50
38973;DHT22;25333;50.762;4.470;2022-07-10T14:23:45;23.10;93.50
38973;DHT22;25333;50.762;4.470;2022-07-10T14:26:12;23.10;93.00
38973;DHT22;25333;50.762;4.470;2022-07-10T14:28:38;23.20;93.10
38973;DHT22;25333;50.762;4.470;2022-07-10T14:31:05;23.30;93.60
38973;DHT22;25333;50.762;4.470;2022-07-10T14:33:32;23.30;94.20
38973;DHT22;25333;50.762;4.470;2022-07-10T14:35:59;23.40;94.30
38973;DHT22;25333;50.762;4.470;2022-07-10T14:38:25;23.50;93.70
38973;DHT22;25333;50.762;4.470;2022-07-10T14:40:51;23.60;93.90
38973;DHT22;25333;50.762;4.470;2022-07-10T14:43:19;23.50;93.00
38973;DHT22;25333;50.762;4.470;2022-07-10T14:45:45;23.50;93.50
38973;DHT22;25333;50.762;4.470;2022-07-10T14:48:11;23.40;91.90
38973;DHT22;25333;50.762;4.470;2022-07-10T14:50:38;23.30;93.10
38973;DHT22;25333;50.762;4.470;2022-07-10T14:53:05;23.20;93.50
38973;DHT22;25333;50.762;4.470;2022-07-10T14:55:31;23.20;93.10
38973;DHT22;25333;50.762;4.470;2022-07-10T14:57:57;23.10;92.70
38973;DHT22;25333;50.762;4.470;2022-07-10T15:00:25;23.10;92.90
38973;DHT22;25333;50.762;4.470;2022-07-10T15:03:02;23.10;93.60
38973;DHT22;25333;50.762;4.470;2022-07-10T15:05:28;23.10;92.90
38973;DHT22;25333;50.762;4.470;2022-07-10T15:07:53;23.10;93.80
38973;DHT22;25333;50.762;4.470;2022-07-10T15:10:19;23.00;93.30
38973;DHT22;25333;50.762;4.470;2022-07-10T15:12:45;23.00;93.10
38973;DHT22;25333;50.762;4.470;2022-07-10T15:15:11;23.00;92.50
38973;DHT22;25333;50.762;4.470;2022-07-10T15:17:37;23.10;92.70
38973;DHT22;25333;50.762;4.470;2022-07-10T15:20:03;23.10;92.30
38973;DHT22;25333;50.762;4.470;2022-07-10T15:22:48;23.10;92.00
38973;DHT22;25333;50.762;4.470;2022-07-10T15:25:14;23.10;92.50
38973;DHT22;25333;50.762;4.470;2022-07-10T15:27:40;23.00;92.00
38973;DHT22;25333;50.762;4.470;2022-07-10T15:30:10;22.90;93.30
38973;DHT22;25333;50.762;4.470;2022-07-10T15:32:39;22.90;92.60
38973;DHT22;25333;50.762;4.470;2022-07-10T15:35:06;22.90;92.10
38973;DHT22;25333;50.762;4.470;2022-07-10T15:37:32;22.90;92.40
38973;DHT22;25333;50.762;4.470;2022-07-10T15:39:58;22.90;92.60
38973;DHT22;25333;50.762;4.470;2022-07-10T15:42:23;23.00;92.60
38973;DHT22;25333;50.762;4.470;2022-07-10T15:44:49;23.10;92.70
38973;DHT22;25333;50.762;4.470;2022-07-10T15:47:15;23.10;92.70
38973;DHT22;25333;50.762;4.470;2022-07-10T15:49:42;23.20;92.70
38973;DHT22;25333;50.762;4.470;2022-07-10T15:52:07;23.20;92.60
38973;DHT22;25333;50.762;4.470;2022-07-10T15:54:33;23.40;92.30
38973;DHT22;25333;50.762;4.470;2022-07-10T15:56:59;23.50;92.70
38973;DHT22;25333;50.762;4.470;2022-07-10T15:59:27;23.50;93.00
38973;DHT22;25333;50.762;4.470;2022-07-10T16:01:54;23.50;92.10
38973;DHT22;25333;50.762;4.470;2022-07-10T16:04:21;23.40;93.60
38973;DHT22;25333;50.762;4.470;2022-07-10T16:06:47;23.30;93.50
38973;DHT22;25333;50.762;4.470;2022-07-10T16:09:13;23.30;92.70
38973;DHT22;25333;50.762;4.470;2022-07-10T16:11:38;23.20;93.70
38973;DHT22;25333;50.762;4.470;2022-07-10T16:14:04;23.10;92.90
38973;DHT22;25333;50.762;4.470;2022-07-10T16:16:30;23.10;93.60
38973;DHT22;25333;50.762;4.470;2022-07-10T16:18:56;23.00;92.00
38973;DHT22;25333;50.762;4.470;2022-07-10T16:21:22;23.00;93.70
38973;DHT22;25333;50.762;4.470;2022-07-10T16:23:47;22.90;92.30
38973;DHT22;25333;50.762;4.470;2022-07-10T16:26:13;22.90;93.10
38973;DHT22;25333;50.762;4.470;2022-07-10T16:28:40;23.00;94.60
38973;DHT22;25333;50.762;4.470;2022-07-10T16:31:06;23.10;93.50
38973;DHT22;25333;50.762;4.470;2022-07-10T16:33:31;23.10;92.60
38973;DHT22;25333;50.762;4.470;2022-07-10T16:35:58;23.20;93.90
38973;DHT22;25333;50.762;4.470;2022-07-10T16:38:24;23.20;92.60
38973;DHT22;25333;50.762;4.470;2022-07-10T16:40:51;23.30;92.90
38973;DHT22;25333;50.762;4.470;2022-07-10T16:43:17;23.40;92.60
38973;DHT22;25333;50.762;4.470;2022-07-10T16:45:43;23.50;93.90
38973;DHT22;25333;50.762;4.470;2022-07-10T16:48:10;23.40;92.30
38973;DHT22;25333;50.762;4.470;2022-07-10T16:50:37;23.30;91.70
38973;DHT22;25333;50.762;4.470;2022-07-10T16:53:03;23.20;91.70
38973;DHT22;25333;50.762;4.470;2022-07-10T16:55:29;23.10;92.20
38973;DHT22;25333;50.762;4.470;2022-07-10T16:57:55;23.10;92.20
38973;DHT22;25333;50.762;4.470;2022-07-10T17:00:21;23.00;93.00
38973;DHT22;25333;50.762;4.470;2022-07-10T17:02:46;22.90;92.10
38973;DHT22;25333;50.762;4.470;2022-07-10T17:05:12;22.70;92.10
38973;DHT22;25333;50.762;4.470;2022-07-10T17:07:38;22.70;92.00
38973;DHT22;25333;50.762;4.470;2022-07-10T17:10:06;22.60;92.70
38973;DHT22;25333;50.762;4.470;2022-07-10T17:12:32;22.70;93.10
38973;DHT22;25333;50.762;4.470;2022-07-10T17:14:58;22.60;92.00
38973;DHT22;25333;50.762;4.470;2022-07-10T17:17:25;22.60;93.20
38973;DHT22;25333;50.762;4.470;2022-07-10T17:19:51;22.60;92.90
38973;DHT22;25333;50.762;4.470;2022-07-10T17:22:18;22.50;92.80
38973;DHT22;25333;50.762;4.470;2022-07-10T17:24:43;22.50;93.40
38973;DHT22;25333;50.762;4.470;2022-07-10T17:27:09;22.40;92.00
38973;DHT22;25333;50.762;4.470;2022-07-10T17:29:35;22.30;93.00
38973;DHT22;25333;50.762;4.470;2022-07-10T17:32:00;22.30;92.50
38973;DHT22;25333;50.762;4.470;2022-07-10T17:34:26;22.30;93.00
38973;DHT22;25333;50.762;4.470;2022-07-10T17:36:52;22.30;93.60
38973;DHT22;25333;50.762;4.470;2022-07-10T17:39:18;22.30;94.00
38973;DHT22;25333;50.762;4.470;2022-07-10T17:41:44;22.20;93.30
38973;DHT22;25333;50.762;4.470;2022-07-10T17:44:10;22.20;93.50
38973;DHT22;25333;50.762;4.470;2022-07-10T17:46:38;22.10;92.40
38973;DHT22;25333;50.762;4.470;2022-07-10T17:49:04;22.00;92.50
38973;DHT22;25333;50.762;4.470;2022-07-10T17:51:29;22.00;93.00
38973;DHT22;25333;50.762;4.470;2022-07-10T17:53:55;21.90;92.40
38973;DHT22;25333;50.762;4.470;2022-07-10T17:56:21;21.90;92.30
38973;DHT22;25333;50.762;4.470;2022-07-10T17:58:47;21.90;93.40
38973;DHT22;25333;50.762;4.470;2022-07-10T18:01:13;21.80;93.30
38973;DHT22;25333;50.762;4.470;2022-07-10T18:03:39;21.80;93.80
38973;DHT22;25333;50.762;4.470;2022-07-10T18:06:05;21.70;93.60
38973;DHT22;25333;50.762;4.470;2022-07-10T18:08:31;21.70;93.40
38973;DHT22;25333;50.762;4.470;2022-07-10T18:10:58;21.60;93.90
38973;DHT22;25333;50.762;4.470;2022-07-10T18:13:24;21.60;94.30
38973;DHT22;25333;50.762;4.470;2022-07-10T18:15:49;21.50;94.40
38973;DHT22;25333;50.762;4.470;2022-07-10T18:18:15;21.50;94.80
38973;DHT22;25333;50.762;4.470;2022-07-10T18:20:41;21.40;94.90
38973;DHT22;25333;50.762;4.470;2022-07-10T18:23:07;21.30;94.60
38973;DHT22;25333;50.762;4.470;2022-07-10T18:25:34;21.30;94.70
38973;DHT22;25333;50.762;4.470;2022-07-10T18:28:00;21.30;94.50
38973;DHT22;25333;50.762;4.470;2022-07-10T18:30:25;21.30;93.80
38973;DHT22;25333;50.762;4.470;2022-07-10T18:32:51;21.20;94.60
38973;DHT22;25333;50.762;4.470;2022-07-10T18:35:36;21.10;94.70
38973;DHT22;25333;50.762;4.470;2022-07-10T18:38:02;21.00;94.90
38973;DHT22;25333;50.762;4.470;2022-07-10T18:40:38;20.90;94.10
38973;DHT22;25333;50.762;4.470;2022-07-10T18:43:07;20.80;94.80
38973;DHT22;25333;50.762;4.470;2022-07-10T18:45:32;20.80;94.80